Share

Sardis, OH (43946)

Kidwell, WV (KWVSISTE2) Elev 738 ft | 39.54 °N, 80.89 °W | Change Station

Current weather conditions updated 12 minutes ago

Clear
Clear
42.8 °F
Feels Like 43 °F
N
0.0
Wind Variable Wind from NNE
Sunrise 6:39 AM
Sunset 8:06 PM
Moon Waning Gibbous

Today is forecast to be Warmer than yesterday.

Pressure 30.28 in
Visibility 10.0 miles
Clouds Clear
Windchill 43 °F
Dew Point 39 °F
Humidity 85%
Rainfall -9999.00 in
Snow Depth Not available.
UV 0 out of 16
Pollen 10.90 out of 12
Air Quality Not available.
Flu Activity Local Activity
METAR KPKB 200353Z AUTO 00000KT 10SM CLR 11/01 A3029 RMK AO2 SLP254 T01060006

More Conditions Fewer Conditions

Pressure 30.28 in
Visibility 10.0 miles
Clouds Clear
Windchill 43 °F
Dew Point 39 °F
Humidity 85%
Rainfall -9999.00 in
Snow Depth Not available.
UV 0 out of 16
Pollen 10.90 out of 12
Air Quality Not available.
Flu Activity Local Activity
METAR KPKB 200353Z AUTO 00000KT 10SM CLR 11/01 A3029 RMK AO2 SLP254 T01060006

More Conditions Fewer Conditions

10-Day Weather Forecast

Almanac

Astronomy

Apr. 20, 2014 Rise Set
Actual Time 6:39 AM EDT 8:06 PM EDT
Civil Twilight 6:10 AM EDT 8:35 PM EDT
Nautical Twilight 5:37 AM EDT 9:09 PM EDT
Astronomical Twilight 5:01 AM EDT 9:45 PM EDT
Moon 12:44 AM EDT 10:58 AM EDT
Length of Visible Light 14h 24m
Length of Day
13h 27m
Tomorrow will be 2m 25s longer.
Waning Gibbous, 74% of the Moon is Illuminated
Today
Waning Gibbous
Apr 22
Last Quarter
Apr 29
New
May 6
First Quarter
May 14
Full

Yesterday's Extremes

State Highs State Lows

Community

  • Cherry Blossoms
    Cherry Blossoms
  • White-Crowned Sparrow
    White-Crowned Sparrow
  • New Day
    New Day
  • Happy Easter!
    Happy Easter!
  • poppy bloom near Mazar-e-Sharif
    poppy bloom near Mazar-e-Sharif

WunderPhotos

Upload Photos

1,703,079 photos uploaded!

WunderBlogs® & News

Nearby

Snow Depth

Station Depth Elevation
No new snow has been reported.

Coastal Water Temperatures

Place Temperature
No Stations Reporting

Earthquake Activity

City Distance Mag. Time & Date
No recent earthquake activity has been reported nearby.
Minimum magnitude displayed is 2.5.

Nearby Weather Stations

Station Location Temp. Windchill Dew Point Humidity Wind Precip. Elev Updated Type
Kidwell, WV, Sistersville, WV 42.8 °F 43 °F 39 °F 85% NNE  at  0.0 mph - / hr 738 ft 12:06 AM EDT Normal
Raven Rock, St. Marys, WV 44.4 °F 44 °F 31 °F 60% ESE  at  0.0 mph 0.00 in / hr 627 ft 12:18 AM EDT Rapid Fire

Show More Stations Show Fewer Stations

What do you think?

We're not finished. Please let us know what you like, what you don't like, and what you are still missing.